Time;durP1;ratioP1;P1;durP2;ratioP2;P2;SDS_P1;SDS_P2;PMS_P1;PMS_P2;Temp;Humidity;BMP_temperature;BMP_pressure;BME280_temperature;BME280_humidity;BME280_pressure;Samples;Min_cycle;Max_cycle;Signal;HPM_P1;HPM_P2
2021/01/01 00:00:14;;;;;;;73.03;41.00;;;6.60;81.10;;;;;;5095476;28;20111;-42
2021/01/01 00:02:39;;;;;;;76.65;41.50;;;6.60;81.20;;;;;;5098264;28;20067;-42
2021/01/01 00:05:07;;;;;;;77.18;43.90;;;6.60;81.20;;;;;;5099379;28;20044;-43
2021/01/01 00:07:33;;;;;;;83.18;44.47;;;6.60;81.30;;;;;;5100565;28;20020;-42
2021/01/01 00:10:00;;;;;;;84.72;44.63;;;6.60;81.20;;;;;;5101011;28;20402;-42
2021/01/01 00:12:26;;;;;;;82.90;42.75;;;6.60;81.00;;;;;;5100240;28;20111;-43
2021/01/01 00:14:52;;;;;;;100.38;50.50;;;6.60;80.80;;;;;;5099225;28;20054;-42
2021/01/01 00:17:17;;;;;;;104.55;50.22;;;6.60;80.40;;;;;;5099404;28;20024;-43
2021/01/01 00:19:43;;;;;;;126.43;57.28;;;6.60;80.20;;;;;;5099135;28;20083;-42
2021/01/01 00:22:11;;;;;;;100.82;46.80;;;6.50;80.00;;;;;;5099095;28;20032;-44
2021/01/01 00:24:36;;;;;;;87.05;42.38;;;6.50;79.90;;;;;;5099576;28;20030;-42
2021/01/01 00:27:02;;;;;;;83.82;41.83;;;6.40;80.00;;;;;;5099779;28;20024;-43
2021/01/01 00:29:28;;;;;;;102.15;46.72;;;6.40;80.20;;;;;;5099475;28;20031;-42
2021/01/01 00:31:53;;;;;;;109.70;46.72;;;6.40;80.30;;;;;;5100115;28;20035;-43
2021/01/01 00:34:19;;;;;;;102.43;44.85;;;6.40;80.30;;;;;;5100237;28;20028;-43
2021/01/01 00:36:45;;;;;;;89.15;40.78;;;6.30;80.30;;;;;;5099507;28;20089;-43
2021/01/01 00:39:10;;;;;;;93.03;41.03;;;6.30;80.50;;;;;;5100039;28;20060;-42
2021/01/01 00:41:36;;;;;;;121.95;50.17;;;6.30;80.50;;;;;;5099583;28;20031;-44
2021/01/01 00:44:02;;;;;;;123.70;58.25;;;6.20;80.30;;;;;;5099878;28;20432;-43
2021/01/01 00:46:28;;;;;;;98.88;47.88;;;6.20;80.20;;;;;;5099889;28;20091;-43
2021/01/01 00:48:58;;;;;;;88.05;43.67;;;6.20;80.30;;;;;;5099648;28;20028;-42
2021/01/01 00:51:28;;;;;;;78.20;38.78;;;6.10;80.30;;;;;;5099452;28;20028;-43
2021/01/01 00:53:54;;;;;;;97.03;42.60;;;6.10;80.30;;;;;;5099424;28;20020;-43
2021/01/01 00:56:25;;;;;;;93.15;43.55;;;6.00;80.20;;;;;;5099708;28;20032;-43
2021/01/01 00:58:52;;;;;;;86.57;35.83;;;6.00;80.10;;;;;;5099929;28;20031;-42
2021/01/01 01:01:21;;;;;;;101.63;40.67;;;6.00;80.00;;;;;;5099288;28;20109;-43
2021/01/01 01:03:47;;;;;;;113.85;45.38;;;5.90;80.00;;;;;;5099597;28;20024;-42
2021/01/01 01:06:13;;;;;;;112.72;42.70;;;5.90;80.00;;;;;;5099217;28;20032;-43
2021/01/01 01:08:39;;;;;;;94.03;37.97;;;5.80;79.90;;;;;;5099609;28;20035;-40
2021/01/01 01:11:05;;;;;;;92.50;40.25;;;5.80;80.10;;;;;;5099472;28;20036;-41
2021/01/01 01:13:31;;;;;;;101.25;42.47;;;5.80;80.30;;;;;;5099404;28;20024;-40
2021/01/01 01:15:56;;;;;;;82.65;34.80;;;5.70;80.20;;;;;;5099091;28;20036;-41
2021/01/01 01:18:22;;;;;;;106.40;44.45;;;5.70;80.30;;;;;;5098862;28;20024;-40
2021/01/01 01:20:47;;;;;;;119.80;53.50;;;5.70;80.40;;;;;;5098875;28;20453;-40
2021/01/01 01:23:13;;;;;;;102.32;44.95;;;5.70;80.50;;;;;;5099577;28;20058;-40
2021/01/01 01:25:39;;;;;;;111.93;51.45;;;5.60;80.50;;;;;;5099421;28;20410;-42
2021/01/01 01:28:05;;;;;;;93.05;43.53;;;5.70;80.70;;;;;;5099272;28;20358;-40
2021/01/01 01:30:30;;;;;;;99.80;46.90;;;5.60;80.70;;;;;;5096904;28;20028;-42
2021/01/01 01:32:56;;;;;;;87.68;43.17;;;5.60;80.90;;;;;;5097118;28;20081;-40
2021/01/01 01:35:22;;;;;;;77.78;35.83;;;5.60;81.10;;;;;;5097167;28;20055;-41
2021/01/01 01:37:48;;;;;;;77.03;37.90;;;5.60;81.30;;;;;;5097570;28;20023;-40
2021/01/01 01:40:14;;;;;;;82.60;36.33;;;5.60;81.40;;;;;;5096978;28;20028;-40
2021/01/01 01:42:40;;;;;;;98.50;45.60;;;5.60;81.50;;;;;;5096909;28;20063;-41
2021/01/01 01:45:07;;;;;;;85.57;40.75;;;5.60;81.70;;;;;;5097603;28;20090;-43
2021/01/01 01:47:34;;;;;;;98.35;47.95;;;5.60;81.90;;;;;;5097754;28;20020;-41
2021/01/01 01:50:00;;;;;;;106.68;48.25;;;5.60;82.20;;;;;;5099167;28;20318;-41
2021/01/01 01:52:26;;;;;;;90.97;41.75;;;5.60;82.20;;;;;;5097233;28;20361;-41
2021/01/01 01:54:54;;;;;;;85.20;40.25;;;5.70;82.30;;;;;;5097267;28;20012;-40
2021/01/01 01:57:23;;;;;;;81.22;38.63;;;5.70;82.30;;;;;;5097893;28;20461;-40
2021/01/01 01:59:52;;;;;;;96.68;44.50;;;5.70;82.20;;;;;;5098562;28;20148;-40
2021/01/01 02:02:18;;;;;;;85.35;42.50;;;5.80;82.10;;;;;;5098513;28;20342;-41
2021/01/01 02:04:44;;;;;;;107.57;49.45;;;5.80;82.00;;;;;;5098495;28;20020;-40
2021/01/01 02:07:10;;;;;;;76.20;39.47;;;5.80;81.80;;;;;;5098056;28;20032;-41
2021/01/01 02:09:35;;;;;;;61.92;32.95;;;5.80;81.50;;;;;;5098279;28;20059;-40
2021/01/01 02:12:01;;;;;;;68.72;37.58;;;5.80;81.40;;;;;;5097985;28;20043;-41
2021/01/01 02:14:27;;;;;;;67.05;36.33;;;5.80;81.30;;;;;;5098541;28;20081;-41
2021/01/01 02:16:53;;;;;;;76.45;38.28;;;5.70;81.00;;;;;;5098140;28;20036;-41
2021/01/01 02:19:19;;;;;;;89.07;41.58;;;5.70;81.00;;;;;;5097677;28;20085;-40
2021/01/01 02:21:44;;;;;;;77.75;38.65;;;5.70;80.80;;;;;;5097945;28;20350;-42
2021/01/01 02:24:11;;;;;;;80.55;39.55;;;5.60;80.80;;;;;;5097972;28;20089;-40
2021/01/01 02:26:37;;;;;;;88.90;46.40;;;5.60;80.90;;;;;;5097409;28;20055;-41
2021/01/01 02:29:03;;;;;;;77.18;42.22;;;5.60;81.00;;;;;;5097255;28;20039;-40
2021/01/01 02:31:29;;;;;;;85.30;39.45;;;5.60;81.20;;;;;;5097815;28;20028;-41
2021/01/01 02:33:55;;;;;;;67.22;33.53;;;5.50;81.20;;;;;;5097801;28;20345;-40
2021/01/01 02:36:21;;;;;;;63.00;32.38;;;5.50;81.10;;;;;;5097201;28;20035;-41
2021/01/01 02:38:47;;;;;;;79.35;40.17;;;5.50;81.20;;;;;;5097785;28;20067;-41
2021/01/01 02:41:14;;;;;;;68.38;34.13;;;5.50;81.20;;;;;;5097099;28;20073;-41
2021/01/01 02:43:39;;;;;;;81.85;41.47;;;5.50;81.30;;;;;;5097717;28;20032;-43
2021/01/01 02:46:05;;;;;;;86.18;44.10;;;5.50;81.50;;;;;;5095329;28;20163;-43
2021/01/01 02:48:31;;;;;;;92.10;44.47;;;5.50;82.10;;;;;;5096442;28;20498;-42
2021/01/01 02:50:57;;;;;;;88.30;44.35;;;5.50;81.70;;;;;;5096248;28;20055;-45
2021/01/01 02:53:23;;;;;;;78.93;39.25;;;5.50;81.70;;;;;;5097396;28;20031;-41
2021/01/01 02:55:49;;;;;;;85.78;41.08;;;5.50;81.50;;;;;;5097596;28;20032;-41
2021/01/01 02:58:15;;;;;;;79.45;40.58;;;5.50;81.40;;;;;;5096652;28;20365;-41
2021/01/01 03:00:46;;;;;;;87.60;44.60;;;5.50;81.30;;;;;;5095556;28;20031;-41
2021/01/01 03:03:11;;;;;;;;;;;5.50;81.30;;;;;;5097497;28;20094;-41
2021/01/01 03:05:37;;;;;;;74.60;40.13;;;5.50;81.20;;;;;;5097232;28;20329;-41
2021/01/01 03:08:04;;;;;;;88.47;46.33;;;5.40;81.30;;;;;;5096735;28;20414;-41
2021/01/01 03:10:29;;;;;;;79.22;41.35;;;5.40;81.50;;;;;;5096774;28;20107;-44
2021/01/01 03:12:55;;;;;;;76.25;39.42;;;5.40;81.50;;;;;;5096701;28;20460;-42
2021/01/01 03:15:21;;;;;;;70.57;35.78;;;5.40;81.40;;;;;;5096799;28;20024;-43
2021/01/01 03:17:46;;;;;;;83.03;44.30;;;5.40;81.50;;;;;;5096973;28;20028;-41
2021/01/01 03:20:14;;;;;;;93.28;44.97;;;5.40;81.60;;;;;;5096580;28;20055;-42
2021/01/01 03:22:40;;;;;;;111.72;49.25;;;5.40;81.70;;;;;;5095327;28;20042;-41
2021/01/01 03:25:07;;;;;;;126.38;55.10;;;5.40;82.00;;;;;;5097169;28;20024;-44
2021/01/01 03:27:33;;;;;;;98.20;43.78;;;5.40;82.10;;;;;;5096222;28;20024;-42
2021/01/01 03:29:59;;;;;;;104.63;46.65;;;5.50;82.40;;;;;;5097351;28;20042;-42
2021/01/01 03:32:24;;;;;;;63.80;33.70;;;5.50;82.70;;;;;;5096499;28;20059;-42
2021/01/01 03:34:51;;;;;;;72.88;37.08;;;5.60;83.20;;;;;;5097143;28;20351;-42
2021/01/01 03:37:17;;;;;;;65.75;35.17;;;5.60;83.40;;;;;;5095709;28;20093;-42
2021/01/01 03:39:42;;;;;;;65.05;35.13;;;5.70;83.70;;;;;;5096903;28;20414;-42
2021/01/01 03:42:11;;;;;;;58.40;31.08;;;5.80;83.80;;;;;;5096552;28;20083;-41
2021/01/01 03:44:37;;;;;;;60.53;30.85;;;5.80;83.80;;;;;;5096688;28;20032;-40
2021/01/01 03:47:06;;;;;;;55.30;29.48;;;5.90;83.90;;;;;;5096263;28;20423;-41
2021/01/01 03:49:32;;;;;;;57.13;31.63;;;6.00;84.00;;;;;;5096472;28;20032;-40
2021/01/01 03:51:58;;;;;;;57.45;30.55;;;6.10;84.00;;;;;;5096803;28;20028;-41
2021/01/01 03:54:23;;;;;;;68.80;33.65;;;6.20;83.90;;;;;;5096516;28;20326;-41
2021/01/01 03:56:49;;;;;;;65.30;32.13;;;6.20;83.80;;;;;;5096458;28;20039;-42
2021/01/01 03:59:15;;;;;;;62.58;34.08;;;6.30;83.60;;;;;;5096821;28;20043;-40
2021/01/01 04:01:41;;;;;;;61.65;31.52;;;6.30;83.50;;;;;;5096118;28;20040;-42
2021/01/01 04:04:06;;;;;;;70.07;34.90;;;6.40;83.30;;;;;;5096143;28;20406;-41
2021/01/01 04:06:32;;;;;;;65.13;32.50;;;6.40;83.20;;;;;;5096171;28;20051;-42
2021/01/01 04:08:58;;;;;;;59.60;32.50;;;6.40;83.10;;;;;;5096812;28;20444;-42
2021/01/01 04:11:23;;;;;;;61.20;31.25;;;6.50;83.00;;;;;;5096423;28;20028;-42
2021/01/01 04:13:49;;;;;;;61.70;35.50;;;6.50;82.90;;;;;;5096339;28;20432;-41
2021/01/01 04:16:15;;;;;;;71.65;38.97;;;6.60;82.90;;;;;;5096338;28;20028;-42
2021/01/01 04:18:40;;;;;;;71.93;37.95;;;6.60;82.80;;;;;;5096311;28;20075;-42
2021/01/01 04:21:07;;;;;;;64.20;35.42;;;6.60;82.50;;;;;;5096223;28;20026;-42
2021/01/01 04:23:34;;;;;;;68.22;36.97;;;6.60;82.10;;;;;;5096381;28;20043;-41
2021/01/01 04:26:00;;;;;;;67.07;37.50;;;6.60;81.90;;;;;;5096213;28;20043;-42
2021/01/01 04:28:26;;;;;;;70.97;38.20;;;6.60;81.80;;;;;;5095876;28;20119;-42
2021/01/01 04:30:52;;;;;;;68.40;37.15;;;6.60;81.70;;;;;;5095802;28;20056;-42
2021/01/01 04:33:18;;;;;;;68.40;35.97;;;6.60;81.70;;;;;;5095616;28;20337;-42
2021/01/01 04:35:43;;;;;;;58.55;32.00;;;6.60;81.70;;;;;;5096292;28;20024;-42
2021/01/01 04:38:09;;;;;;;66.22;33.97;;;6.50;81.70;;;;;;5095928;28;20035;-41
2021/01/01 04:40:35;;;;;;;60.03;32.10;;;6.60;81.80;;;;;;5096019;28;20096;-42
2021/01/01 04:43:01;;;;;;;57.08;32.75;;;6.60;81.80;;;;;;5095805;28;20035;-41
2021/01/01 04:45:27;;;;;;;51.55;30.05;;;6.50;81.70;;;;;;5095509;28;20073;-44
2021/01/01 04:47:54;;;;;;;59.53;32.33;;;6.60;81.60;;;;;;5098033;28;20024;-41
2021/01/01 04:50:19;;;;;;;55.90;33.70;;;6.60;81.70;;;;;;5099867;28;20102;-42
2021/01/01 04:52:50;;;;;;;57.65;33.58;;;6.60;81.80;;;;;;5099266;28;20052;-42
2021/01/01 04:55:17;;;;;;;55.17;30.30;;;6.60;81.90;;;;;;5099540;28;20167;-42
2021/01/01 04:57:42;;;;;;;61.75;33.13;;;6.60;81.80;;;;;;5099281;28;20032;-42
2021/01/01 05:00:09;;;;;;;60.90;33.10;;;6.60;81.60;;;;;;5099264;28;20052;-42
2021/01/01 05:02:35;;;;;;;57.95;34.20;;;6.60;81.50;;;;;;5099580;28;20093;-42
2021/01/01 05:05:00;;;;;;;58.60;32.65;;;6.60;81.30;;;;;;5100025;28;20024;-43
2021/01/01 05:07:28;;;;;;;55.83;32.40;;;6.60;81.10;;;;;;5099565;28;20357;-42
2021/01/01 05:09:55;;;;;;;58.97;33.33;;;6.60;80.90;;;;;;5099163;28;20382;-41
2021/01/01 05:12:30;;;;;;;59.10;34.60;;;6.60;80.70;;;;;;5099151;28;20341;-42
2021/01/01 05:14:55;;;;;;;60.33;34.58;;;6.60;80.50;;;;;;5099616;28;20031;-41
2021/01/01 05:17:32;;;;;;;59.90;33.10;;;6.50;80.40;;;;;;5099087;28;20024;-43
2021/01/01 05:20:07;;;;;;;53.90;31.98;;;6.50;80.20;;;;;;5098820;28;20064;-41
2021/01/01 05:22:33;;;;;;;53.05;31.80;;;6.50;80.00;;;;;;5099165;28;20166;-41
2021/01/01 05:25:14;;;;;;;57.70;34.60;;;6.50;79.80;;;;;;5099620;28;20024;-41
2021/01/01 05:27:45;;;;;;;56.15;31.17;;;6.40;79.70;;;;;;5098414;28;20032;-42
2021/01/01 05:30:13;;;;;;;59.80;34.92;;;6.40;79.70;;;;;;5099080;28;20028;-41
2021/01/01 05:32:49;;;;;;;58.63;32.40;;;6.30;79.70;;;;;;5098463;28;20383;-42
2021/01/01 05:35:26;;;;;;;55.38;30.67;;;6.30;80.00;;;;;;5098760;28;20027;-41
2021/01/01 05:37:52;;;;;;;59.60;33.97;;;6.30;80.20;;;;;;5098696;28;20028;-41
2021/01/01 05:40:29;;;;;;;61.72;34.97;;;6.30;80.30;;;;;;5098589;28;20098;-42
2021/01/01 05:42:54;;;;;;;55.95;31.48;;;6.30;80.40;;;;;;5098554;28;20068;-41
2021/01/01 05:45:25;;;;;;;50.42;29.88;;;6.30;80.60;;;;;;5098762;28;20098;-42
2021/01/01 05:48:04;;;;;;;47.78;28.65;;;6.20;80.70;;;;;;5098244;28;20506;-41
2021/01/01 05:50:32;;;;;;;44.08;25.52;;;6.20;80.50;;;;;;5098291;28;20228;-42
2021/01/01 05:53:16;;;;;;;47.72;27.60;;;6.20;80.20;;;;;;5098915;28;20066;-42
2021/01/01 05:55:42;;;;;;;53.10;30.45;;;6.30;80.30;;;;;;5098601;28;20336;-41
2021/01/01 05:58:25;;;;;;;64.43;36.22;;;6.20;80.40;;;;;;5098592;28;20028;-42
2021/01/01 06:00:56;;;;;;;57.67;31.23;;;6.30;80.60;;;;;;5098380;28;20036;-42
2021/01/01 06:03:22;;;;;;;;;;;6.30;80.80;;;;;;5099064;28;20041;-41
2021/01/01 06:05:58;;;;;;;76.60;40.15;;;6.30;80.90;;;;;;5098431;28;19908;-42
2021/01/01 06:08:26;;;;;;;82.65;39.20;;;6.30;80.90;;;;;;5098519;28;20333;-41
2021/01/01 06:10:53;;;;;;;65.07;32.90;;;6.40;81.00;;;;;;5097686;28;20024;-42
2021/01/01 06:13:21;;;;;;;72.80;36.47;;;6.40;81.00;;;;;;5098085;28;20028;-42
2021/01/01 06:15:57;;;;;;;80.20;39.40;;;6.40;81.00;;;;;;5097617;28;20105;-42
2021/01/01 06:18:32;;;;;;;68.72;35.83;;;6.40;81.00;;;;;;5096753;28;20123;-41
2021/01/01 06:21:07;;;;;;;65.13;34.00;;;6.40;81.10;;;;;;5096318;28;20106;-42
2021/01/01 06:23:38;;;;;;;78.43;37.75;;;6.50;81.30;;;;;;5095866;28;20202;-41
2021/01/01 06:26:11;;;;;;;73.28;33.55;;;6.60;81.40;;;;;;5095465;28;20024;-41
2021/01/01 06:28:42;;;;;;;56.58;30.45;;;6.60;81.30;;;;;;5096024;28;20027;-41
2021/01/01 06:31:08;;;;;;;;;;;6.60;81.10;;;;;;5096869;28;20031;-42
2021/01/01 06:33:34;;;;;;;45.78;27.92;;;6.60;80.70;;;;;;5096461;28;19908;-41
2021/01/01 06:36:00;;;;;;;70.47;32.22;;;6.60;80.40;;;;;;5096911;28;20074;-42
2021/01/01 06:38:41;;;;;;;58.65;29.60;;;6.70;80.90;;;;;;5098143;28;20571;-41
2021/01/01 06:41:13;;;;;;;47.70;25.70;;;6.70;81.10;;;;;;5097758;28;20035;-42
2021/01/01 06:43:55;;;;;;;43.33;24.95;;;6.70;80.80;;;;;;5097603;28;20429;-42
2021/01/01 06:46:35;;;;;;;50.50;25.20;;;6.80;80.60;;;;;;5097130;28;20430;-42
2021/01/01 06:49:03;;;;;;;50.30;25.80;;;6.80;80.50;;;;;;5097438;28;20486;-41
2021/01/01 06:51:30;;;;;;;51.75;27.13;;;6.80;80.30;;;;;;5097560;28;20353;-43
2021/01/01 06:54:09;;;;;;;58.05;27.13;;;6.80;80.30;;;;;;5097326;28;20086;-42
2021/01/01 06:56:35;;;;;;;57.03;30.80;;;6.80;80.40;;;;;;5097196;28;20336;-41
2021/01/01 06:59:07;;;;;;;103.55;44.63;;;6.80;80.30;;;;;;5097359;28;20020;-41
2021/01/01 07:01:40;;;;;;;114.13;47.70;;;6.80;81.10;;;;;;5097284;28;20136;-42
2021/01/01 07:04:06;;;;;;;111.95;47.08;;;6.80;81.80;;;;;;5097437;28;20414;-42
2021/01/01 07:06:33;;;;;;;106.20;46.30;;;6.90;82.10;;;;;;5097216;28;20414;-42
2021/01/01 07:08:59;;;;;;;97.55;45.05;;;7.00;83.00;;;;;;5097189;28;20028;-42
2021/01/01 07:11:30;;;;;;;101.43;43.63;;;7.10;82.70;;;;;;5096663;28;20044;-42
2021/01/01 07:14:01;;;;;;;88.22;40.47;;;7.20;82.70;;;;;;5096881;28;20034;-42
2021/01/01 07:16:36;;;;;;;55.63;27.42;;;7.30;82.60;;;;;;5096776;28;20347;-42
2021/01/01 07:19:02;;;;;;;55.75;26.85;;;7.40;82.60;;;;;;5096544;28;20056;-42
2021/01/01 07:21:28;;;;;;;52.42;24.98;;;7.50;82.50;;;;;;5096827;28;20028;-43
2021/01/01 07:23:54;;;;;;;47.47;23.95;;;7.60;82.40;;;;;;5097197;28;20054;-42
2021/01/01 07:26:21;;;;;;;36.03;20.42;;;7.70;82.20;;;;;;5096616;28;20024;-42
2021/01/01 07:28:48;;;;;;;35.50;20.08;;;7.70;82.00;;;;;;5096862;28;20101;-42
2021/01/01 07:31:19;;;;;;;42.38;22.08;;;7.80;82.10;;;;;;5096209;28;20527;-42
2021/01/01 07:33:45;;;;;;;;;;;7.80;82.00;;;;;;5097218;28;20367;-43
2021/01/01 07:36:12;;;;;;;33.85;19.50;;;7.80;81.80;;;;;;5095888;28;19912;-43
2021/01/01 07:38:43;;;;;;;44.97;22.33;;;7.90;82.00;;;;;;5095269;28;20032;-43
2021/01/01 07:41:08;;;;;;;38.58;20.58;;;7.90;82.20;;;;;;5084262;28;20476;-42
2021/01/01 07:43:34;;;;;;;41.83;20.77;;;7.90;82.10;;;;;;5074614;28;20101;-42
2021/01/01 07:46:03;;;;;;;38.33;19.85;;;8.00;82.10;;;;;;5085921;28;20047;-42
2021/01/01 07:48:29;;;;;;;35.85;20.05;;;8.00;82.10;;;;;;5095434;28;20024;-42
2021/01/01 07:50:59;;;;;;;38.20;20.63;;;8.10;82.30;;;;;;5089123;28;20015;-42
2021/01/01 07:53:35;;;;;;;36.13;20.67;;;8.10;82.30;;;;;;5099358;28;20023;-42
2021/01/01 07:56:09;;;;;;;37.70;20.73;;;8.10;82.30;;;;;;5095243;28;20544;-42
2021/01/01 07:58:36;;;;;;;39.38;20.45;;;8.10;82.30;;;;;;5076091;28;20389;-42
2021/01/01 08:01:06;;;;;;;36.45;19.60;;;8.10;82.40;;;;;;5074481;28;20449;-43
2021/01/01 08:03:32;;;;;;;35.15;20.90;;;8.20;82.50;;;;;;5074492;28;20032;-42
2021/01/01 08:05:59;;;;;;;37.38;19.77;;;8.20;82.50;;;;;;5074524;28;20609;-42
2021/01/01 08:08:25;;;;;;;39.30;21.40;;;8.20;82.60;;;;;;5074488;28;20028;-42
2021/01/01 08:10:53;;;;;;;41.65;20.88;;;8.20;82.60;;;;;;5074421;28;20027;-43
2021/01/01 08:13:21;;;;;;;40.20;20.77;;;8.20;82.70;;;;;;5074618;28;20402;-42
2021/01/01 08:15:48;;;;;;;38.33;21.55;;;8.30;82.80;;;;;;5074360;28;20107;-42
2021/01/01 08:18:19;;;;;;;42.28;21.45;;;8.30;83.00;;;;;;5074423;28;20029;-43
2021/01/01 08:20:58;;;;;;;41.58;21.30;;;8.30;82.90;;;;;;5074550;28;20115;-42
2021/01/01 08:23:26;;;;;;;35.50;19.17;;;8.30;82.80;;;;;;5077001;28;20047;-42
2021/01/01 08:25:53;;;;;;;43.38;21.95;;;8.30;82.80;;;;;;5078297;28;20028;-43
2021/01/01 08:28:24;;;;;;;39.65;21.65;;;8.30;82.90;;;;;;5077703;28;20033;-43
2021/01/01 08:31:08;;;;;;;;;;;8.30;83.00;;;;;;5078169;28;20033;-42
2021/01/01 08:33:42;;;;;;;38.22;20.48;;;8.30;82.70;;;;;;5079438;28;19931;-42
2021/01/01 08:36:11;;;;;;;36.47;20.02;;;8.40;83.20;;;;;;5079127;28;20066;-42
2021/01/01 08:38:40;;;;;;;37.50;20.20;;;8.40;83.30;;;;;;5079126;28;20028;-42
2021/01/01 08:41:06;;;;;;;35.83;19.75;;;8.40;83.30;;;;;;5079054;28;20099;-42
2021/01/01 08:43:32;;;;;;;34.55;19.65;;;8.40;83.40;;;;;;5079502;28;20068;-42
2021/01/01 08:45:58;;;;;;;37.88;20.40;;;8.40;83.50;;;;;;5079492;28;20063;-42
2021/01/01 08:48:30;;;;;;;41.67;20.30;;;8.40;83.60;;;;;;5079393;28;20414;-42
2021/01/01 08:50:56;;;;;;;33.97;19.85;;;8.50;83.70;;;;;;5079474;28;20031;-43
2021/01/01 08:53:22;;;;;;;35.67;19.70;;;8.50;83.80;;;;;;5079393;28;20032;-42
2021/01/01 08:55:58;;;;;;;36.28;21.17;;;8.60;83.80;;;;;;5084490;28;20097;-43
2021/01/01 08:58:24;;;;;;;35.67;20.30;;;8.60;83.70;;;;;;5118389;28;20027;-42
2021/01/01 09:00:50;;;;;;;36.55;19.30;;;8.70;83.60;;;;;;5120100;28;20028;-43
2021/01/01 09:03:18;;;;;;;32.13;19.30;;;8.70;83.40;;;;;;5119575;28;20043;-42
2021/01/01 09:05:45;;;;;;;36.88;20.83;;;8.70;84.00;;;;;;5120022;28;20317;-42
2021/01/01 09:08:11;;;;;;;41.05;20.77;;;8.70;83.30;;;;;;5119551;28;20038;-42
2021/01/01 09:10:39;;;;;;;37.58;20.55;;;8.70;83.30;;;;;;5120178;28;20030;-42
2021/01/01 09:13:26;;;;;;;31.25;19.45;;;8.80;83.40;;;;;;5119639;28;20027;-42
2021/01/01 09:16:11;;;;;;;39.05;21.58;;;8.80;83.40;;;;;;5120188;28;20482;-42
2021/01/01 09:18:37;;;;;;;36.88;19.65;;;8.80;83.40;;;;;;5119726;28;20100;-42
2021/01/01 09:21:12;;;;;;;34.08;19.05;;;8.90;83.60;;;;;;5119522;28;20432;-42
2021/01/01 09:23:38;;;;;;;29.67;18.60;;;8.90;83.60;;;;;;5119583;28;20126;-43
2021/01/01 09:26:05;;;;;;;33.83;18.75;;;8.90;83.60;;;;;;5119561;28;20060;-43
2021/01/01 09:28:31;;;;;;;30.13;17.55;;;9.00;83.70;;;;;;5119845;28;20028;-42
2021/01/01 09:30:57;;;;;;;39.28;17.55;;;9.00;83.70;;;;;;5119548;28;20024;-42
2021/01/01 09:33:23;;;;;;;33.40;16.75;;;9.00;83.80;;;;;;5118511;28;20317;-42
2021/01/01 09:35:49;;;;;;;30.08;17.13;;;9.10;83.80;;;;;;5118858;28;20027;-43
2021/01/01 09:38:15;;;;;;;26.55;15.73;;;9.10;83.80;;;;;;5119310;28;20042;-42
2021/01/01 09:40:40;;;;;;;25.70;16.02;;;9.20;84.30;;;;;;5119468;28;20038;-43
2021/01/01 09:43:07;;;;;;;25.23;16.08;;;9.20;83.70;;;;;;5119090;28;20144;-42
2021/01/01 09:45:38;;;;;;;29.40;16.08;;;9.30;83.80;;;;;;5119188;28;20062;-43
2021/01/01 09:48:05;;;;;;;25.05;14.73;;;9.40;83.70;;;;;;5119515;28;20104;-42
2021/01/01 09:50:30;;;;;;;24.42;15.85;;;9.40;83.70;;;;;;5119407;28;20362;-42
2021/01/01 09:52:56;;;;;;;33.88;16.75;;;9.40;83.50;;;;;;5118822;28;20077;-42
2021/01/01 09:55:23;;;;;;;21.25;14.32;;;9.50;83.30;;;;;;5118707;28;20337;-43
2021/01/01 09:57:48;;;;;;;24.98;15.25;;;9.50;83.20;;;;;;5119002;28;20030;-42
2021/01/01 10:00:16;;;;;;;28.55;15.43;;;9.60;83.20;;;;;;5118987;28;20028;-43
2021/01/01 10:02:42;;;;;;;26.50;15.23;;;9.60;83.20;;;;;;5118986;28;20088;-42
2021/01/01 10:05:10;;;;;;;21.25;13.82;;;9.60;83.00;;;;;;5118422;28;20417;-43
2021/01/01 10:07:36;;;;;;;29.08;14.82;;;9.60;82.90;;;;;;5118778;28;20027;-42
2021/01/01 10:10:04;;;;;;;24.13;13.93;;;9.60;82.80;;;;;;5100220;28;20034;-43
2021/01/01 10:12:30;;;;;;;27.88;15.43;;;9.70;82.90;;;;;;5097566;28;20126;-43
2021/01/01 10:14:57;;;;;;;27.73;15.93;;;9.70;82.70;;;;;;5098277;28;20115;-42
2021/01/01 10:17:27;;;;;;;25.30;14.32;;;9.80;83.30;;;;;;5097583;28;20452;-43
2021/01/01 10:19:53;;;;;;;25.40;14.18;;;9.80;82.60;;;;;;5096465;28;20417;-43
2021/01/01 10:22:19;;;;;;;23.35;14.82;;;9.80;82.50;;;;;;5096951;28;20131;-43
2021/01/01 10:24:45;;;;;;;21.42;15.15;;;9.80;82.40;;;;;;5097946;28;20114;-42
2021/01/01 10:27:12;;;;;;;22.52;14.70;;;9.80;82.40;;;;;;5097693;28;20031;-43
2021/01/01 10:29:38;;;;;;;28.52;14.52;;;9.80;82.30;;;;;;5097938;28;20036;-43
2021/01/01 10:32:13;;;;;;;22.70;13.75;;;9.80;82.30;;;;;;5097624;28;20131;-43
2021/01/01 10:34:41;;;;;;;24.52;14.93;;;9.80;82.20;;;;;;5098117;28;20390;-42
2021/01/01 10:37:06;;;;;;;26.05;14.05;;;9.80;82.20;;;;;;5097004;28;20028;-43
2021/01/01 10:39:32;;;;;;;31.65;14.43;;;9.90;82.30;;;;;;5097966;28;20028;-42
2021/01/01 10:41:58;;;;;;;24.70;14.82;;;9.80;82.10;;;;;;5096489;28;20327;-43
2021/01/01 10:44:24;;;;;;;21.45;13.98;;;9.90;82.40;;;;;;5097816;28;20318;-42
2021/01/01 10:46:52;;;;;;;24.80;15.40;;;9.90;82.40;;;;;;5096711;28;20028;-43
2021/01/01 10:49:22;;;;;;;23.40;13.77;;;9.90;82.30;;;;;;5097337;28;20337;-43
2021/01/01 10:51:49;;;;;;;25.00;14.40;;;9.90;82.20;;;;;;5097197;28;20036;-42
2021/01/01 10:54:15;;;;;;;28.88;15.27;;;9.90;82.00;;;;;;5097367;28;20080;-42
2021/01/01 10:56:41;;;;;;;23.95;13.68;;;10.00;82.00;;;;;;5097646;28;20118;-43
2021/01/01 10:59:07;;;;;;;21.55;14.02;;;10.00;81.90;;;;;;5097698;28;20027;-42
2021/01/01 11:01:32;;;;;;;25.92;13.63;;;10.00;81.80;;;;;;5097299;28;20152;-43
2021/01/01 11:03:58;;;;;;;25.85;14.05;;;10.00;81.80;;;;;;5097541;28;20089;-43
2021/01/01 11:06:24;;;;;;;22.08;13.60;;;10.00;81.80;;;;;;5097189;28;20024;-45
2021/01/01 11:08:49;;;;;;;22.55;13.43;;;10.00;81.60;;;;;;5097121;28;20156;-42
2021/01/01 11:11:21;;;;;;;22.58;13.98;;;9.90;81.40;;;;;;5097210;28;20020;-46
2021/01/01 11:13:51;;;;;;;23.98;13.57;;;9.90;81.60;;;;;;5097156;28;20111;-43
2021/01/01 12:22:55;;;;;;;52.92;25.65;;;10.30;80.10;;;;;;5095700;28;20044;-43
2021/01/01 12:25:21;;;;;;;39.03;20.50;;;10.30;79.80;;;;;;5095944;28;20097;-42
2021/01/01 12:27:49;;;;;;;32.97;19.75;;;10.30;79.30;;;;;;5095865;28;20024;-42
2021/01/01 12:30:16;;;;;;;31.80;18.10;;;10.20;78.70;;;;;;5096181;28;20027;-42
2021/01/01 12:32:42;;;;;;;41.33;21.98;;;10.20;78.50;;;;;;5096128;28;20405;-43
2021/01/01 12:35:10;;;;;;;33.85;20.55;;;10.10;78.10;;;;;;5096129;28;20038;-42
2021/01/01 12:37:37;;;;;;;29.73;18.83;;;10.00;77.90;;;;;;5095797;28;20051;-42
2021/01/01 12:40:08;;;;;;;32.28;19.08;;;9.90;77.60;;;;;;5095815;28;20130;-42
2021/01/01 12:42:34;;;;;;;;;;;9.80;77.10;;;;;;5096748;28;20040;-42
2021/01/01 12:45:00;;;;;;;35.35;19.85;;;9.80;77.30;;;;;;5096303;28;19914;-42
2021/01/01 12:47:26;;;;;;;33.47;19.98;;;9.60;77.00;;;;;;5096226;28;20104;-42
2021/01/01 12:49:52;;;;;;;35.95;20.88;;;9.50;77.20;;;;;;5096438;28;20020;-42
2021/01/01 12:52:20;;;;;;;44.15;23.73;;;9.50;77.30;;;;;;5095354;28;20035;-42
2021/01/01 12:54:45;;;;;;;45.00;24.58;;;9.40;77.30;;;;;;5096399;28;20032;-42
2021/01/01 12:57:11;;;;;;;42.95;23.55;;;9.30;77.80;;;;;;5095664;28;20170;-43
2021/01/01 12:59:37;;;;;;;52.78;25.85;;;9.30;77.60;;;;;;5095969;28;20029;-41
2021/01/01 13:02:03;;;;;;;50.60;26.45;;;9.20;77.60;;;;;;5095561;28;20036;-43
2021/01/01 13:04:28;;;;;;;45.72;25.70;;;9.10;77.90;;;;;;5096095;28;20080;-42
2021/01/01 13:06:54;;;;;;;43.13;24.52;;;9.10;77.80;;;;;;5095559;28;20107;-42
2021/01/01 13:09:22;;;;;;;48.05;25.60;;;9.00;77.70;;;;;;5098657;28;20024;-42
2021/01/01 13:11:48;;;;;;;44.30;24.45;;;9.00;77.70;;;;;;5098996;28;20028;-42
2021/01/01 13:14:14;;;;;;;50.38;26.25;;;9.00;77.30;;;;;;5099404;28;20065;-42
2021/01/01 13:16:42;;;;;;;51.22;27.60;;;8.90;77.10;;;;;;5099027;28;20027;-42
2021/01/01 13:19:08;;;;;;;55.35;29.45;;;8.80;77.10;;;;;;5099183;28;20056;-42
2021/01/01 13:21:35;;;;;;;42.22;23.67;;;8.70;77.30;;;;;;5098879;28;20455;-42
2021/01/01 13:24:03;;;;;;;44.92;23.08;;;8.70;77.20;;;;;;5099312;28;20028;-42
2021/01/01 13:26:30;;;;;;;39.78;24.60;;;8.60;77.30;;;;;;5098379;28;20032;-42
2021/01/01 13:28:58;;;;;;;48.45;27.45;;;8.50;77.20;;;;;;5099545;28;20039;-43
2021/01/01 13:31:38;;;;;;;41.75;24.13;;;8.50;77.40;;;;;;5096982;28;20437;-41
2021/01/01 13:34:07;;;;;;;46.28;25.60;;;8.40;77.50;;;;;;5097338;28;20133;-42
2021/01/01 13:36:34;;;;;;;46.05;26.20;;;8.40;77.80;;;;;;5097343;28;20038;-42
2021/01/01 13:39:03;;;;;;;50.22;26.17;;;8.30;77.90;;;;;;5097180;28;20444;-43
2021/01/01 13:41:29;;;;;;;47.53;25.02;;;8.30;78.10;;;;;;5096085;28;20024;-42
2021/01/01 13:43:57;;;;;;;42.58;25.27;;;8.20;78.20;;;;;;5096815;28;20085;-43
2021/01/01 13:46:25;;;;;;;47.40;26.77;;;8.20;78.90;;;;;;5096289;28;20035;-42